Kezdőlap
METAR-TAF:

METAR-TAF

Repülőterek :

Tulln an der Donau, Ausztria

légibázis

földrajzi szélesség: 48-19N, földrajzi hosszúság: 016-07E, magasság: 175 m

METAR: hiányzik

Idő: 07:39 (06:39 UTC)

Előrejelzés

A jelentés 24 perccel ezelõtt készült, 06:15 UTC
Az előrejelzés 23-én 06 óra UTC és 23-én 15 óra UTC között érvényes
Észak-északkeleti szél 6 kt
Látótávolság: 9000 m
Kevés felhő 1000 lábon
Szakadozott felhőzet 3500 lábon
Valószínűség 40% :
23-én 06 óra UTC és 23-én 15 óra UTC között ideiglenes
Látótávolság: 6000 m
Szakadozott felhőzet 2000 lábon
enyhe havazás

TAF: LOXT 230615Z 2306/2315 03006KT 9000 FEW010 BKN035 PROB40 TEMPO 2306/2315 6000 -SN BKN020

Meteorológiai megfigyelések és előrejelzések több, mint 4000 repülőtéren (METAR és TAF jelentéseket).

A térképen piros és sárga pontok jelzik az elérhető meteorológiai állomásokat.

Mozgassa az egeret a pont fölött, hogy megjelenjen az állomás neve.

Azután kattintson az időjárási megfigyelések és előrejelzések megtekintéséhez.

A térkép megváltoztatása: kattintson a fekete keresztel jelölt zöld gombra ráközelítéshez, a vonallal jelölt zöld gombra távolításhoz, vagy a zöld nyilakra a szomszédos térképek eléréséhez.


METAR-TAF: